sensor_id;sensor_type;location;lat;lon;timestamp;pressure;altitude;pressure_sealevel;temperature;humidity
46382;BME280;66809;52.974;-2.514;2023-07-31T00:01:55;997.3788366482622;;;16.3987163287995;44.37641445836438
46382;BME280;66809;52.974;-2.514;2023-07-31T00:03:55;997.367508474259;;;16.396330534971177;44.39363485190083
46382;BME280;66809;52.974;-2.514;2023-07-31T00:05:55;997.3557045051119;;;16.396112605639882;44.40967312015416
46382;BME280;66809;52.974;-2.514;2023-07-31T00:07:55;997.3415579602053;;;16.389387661271652;44.427095712478504
46382;BME280;66809;52.974;-2.514;2023-07-31T00:09:55;997.3271313108395;;;16.397113859366645;44.44837827599381
46382;BME280;66809;52.974;-2.514;2023-07-31T00:11:55;997.3107808233651;;;16.382327153205306;44.466894357983186
46382;BME280;66809;52.974;-2.514;2023-07-31T00:13:54;997.2922077137302;;;16.368255206324953;44.49113805932182
46382;BME280;66809;52.974;-2.514;2023-07-31T00:15:55;997.274759525974;;;16.358853280980114;44.52556287734741
46382;BME280;66809;52.974;-2.514;2023-07-31T00:17:55;997.2571871868297;;;16.34661969336232;44.56383915915083
46382;BME280;66809;52.974;-2.514;2023-07-31T00:19:55;997.240047559236;;;16.331251953568323;44.609034943046666
46382;BME280;66809;52.974;-2.514;2023-07-31T00:21:55;997.2238524497867;;;16.308279357212133;44.66422376900532
46382;BME280;66809;52.974;-2.514;2023-07-31T00:23:55;997.2083260718172;;;16.299368482845086;44.71198737046439
46382;BME280;66809;52.974;-2.514;2023-07-31T00:25:55;997.1918426031539;;;16.28508521469768;44.767367056420056
46382;BME280;66809;52.974;-2.514;2023-07-31T00:27:55;997.1744741657159;;;16.279981251275473;44.82195241830615
46382;BME280;66809;52.974;-2.514;2023-07-31T00:29:55;997.1558459317657;;;16.25720244702567;44.88009640401174
46382;BME280;66809;52.974;-2.514;2023-07-31T00:31:55;997.137990458675;;;16.241737586137383;44.940008512905464
46382;BME280;66809;52.974;-2.514;2023-07-31T00:33:55;997.1202982237616;;;16.224673071915632;45.00211545676426
46382;BME280;66809;52.974;-2.514;2023-07-31T00:35:55;997.0995878821134;;;16.213345159407325;45.0668035694389
46382;BME280;66809;52.974;-2.514;2023-07-31T00:37:57;997.0775737914804;;;16.18854081206536;45.13099300205092
46382;BME280;66809;52.974;-2.514;2023-07-31T00:39:55;997.0557629475977;;;16.17762176439636;45.192786701282934
46382;BME280;66809;52.974;-2.514;2023-07-31T00:41:55;997.0339604010767;;;16.161403058572247;45.25594705766887
46382;BME280;66809;52.974;-2.514;2023-07-31T00:43:55;997.0116745666306;;;16.138075249737245;45.32038403121537
46382;BME280;66809;52.974;-2.514;2023-07-31T00:45:55;996.9882870543873;;;16.119383321191435;45.38767898800144
46382;BME280;66809;52.974;-2.514;2023-07-31T00:47:55;996.962980080711;;;16.089422177756372;45.448858748880774
46382;BME280;66809;52.974;-2.514;2023-07-31T00:49:55;996.9391703507131;;;16.07334631799129;45.51320225956992
46382;BME280;66809;52.974;-2.514;2023-07-31T00:51:55;996.913431883588;;;16.0601580353844;45.57172344379928
46382;BME280;66809;52.974;-2.514;2023-07-31T00:53:55;996.8870759876974;;;16.035941875211073;45.63133608409669
46382;BME280;66809;52.974;-2.514;2023-07-31T00:55:55;996.8610394514905;;;16.030988638151438;45.690172251876675
46382;BME280;66809;52.974;-2.514;2023-07-31T00:57:55;996.833725591073;;;16.02001545406507;45.7459587158654
46382;BME280;66809;52.974;-2.514;2023-07-31T00:59:55;996.806694082825;;;16.005243767110684;45.799276610223295
46382;BME280;66809;52.974;-2.514;2023-07-31T01:01:55;996.7788352549404;;;15.999914753846985;45.85536444998531
46382;BME280;66809;52.974;-2.514;2023-07-31T01:03:55;996.7519631461688;;;15.992148450808918;45.90305017578765
46382;BME280;66809;52.974;-2.514;2023-07-31T01:06:07;996.7257393083672;;;15.983130168039091;45.95290768773682
46382;BME280;66809;52.974;-2.514;2023-07-31T01:08:02;996.7013251790315;;;15.973377697507686;45.99198105299458
46382;BME280;66809;52.974;-2.514;2023-07-31T01:10:04;996.6775474757796;;;15.967059528592563;46.03550070824001
46382;BME280;66809;52.974;-2.514;2023-07-31T01:11:57;996.6535199823958;;;15.966648908643322;46.07248200792792
46382;BME280;66809;52.974;-2.514;2023-07-31T01:13:55;996.6291320034187;;;15.96271184105159;46.11142748611473
46382;BME280;66809;52.974;-2.514;2023-07-31T01:15:54;996.6028819181797;;;15.962720799015322;46.1411045638769
46382;BME280;66809;52.974;-2.514;2023-07-31T01:17:55;996.5765318184116;;;15.953855559045794;46.16376517350242
46382;BME280;66809;52.974;-2.514;2023-07-31T01:19:56;996.5497323272343;;;15.946124107408655;46.175372949628034
46382;BME280;66809;52.974;-2.514;2023-07-31T01:22:27;996.521551422101;;;15.951753811759577;46.17362233129092
46382;BME280;66809;52.974;-2.514;2023-07-31T01:24:31;996.4931502980969;;;15.940767960444727;46.18351646345967
46382;BME280;66809;52.974;-2.514;2023-07-31T01:26:02;996.4629520242471;;;15.940776362773281;46.190546683929256
46382;BME280;66809;52.974;-2.514;2023-07-31T01:28:00;996.4344895489354;;;15.938140300780216;46.19669817648513
46382;BME280;66809;52.974;-2.514;2023-07-31T01:29:59;996.4055736103563;;;15.933963679974665;46.19848910481926
46382;BME280;66809;52.974;-2.514;2023-07-31T01:31:56;996.3769491778964;;;15.92279241259471;46.19455199746588
46382;BME280;66809;52.974;-2.514;2023-07-31T01:33:59;996.3487735030957;;;15.925834131648235;46.185657728876066
46382;BME280;66809;52.974;-2.514;2023-07-31T01:35:56;996.3236537194717;;;15.9225510738002;46.17705142235777
46382;BME280;66809;52.974;-2.514;2023-07-31T01:37:55;996.2977049795528;;;15.92020676689958;46.16981119941898
46382;BME280;66809;52.974;-2.514;2023-07-31T01:39:55;996.2721371198287;;;15.921332705625597;46.16486854345893
46382;BME280;66809;52.974;-2.514;2023-07-31T01:41:55;996.2468406558398;;;15.918789067862726;46.14874867769565
46382;BME280;66809;52.974;-2.514;2023-07-31T01:43:55;996.2244206887864;;;15.919455195313123;46.13146048432221
46382;BME280;66809;52.974;-2.514;2023-07-31T01:45:55;996.202575915736;;;15.922390003097023;46.11062586326877
46382;BME280;66809;52.974;-2.514;2023-07-31T01:47:55;996.1831340393186;;;15.933890737432181;46.09423548511435
46382;BME280;66809;52.974;-2.514;2023-07-31T01:49:55;996.1620833314519;;;15.938075196152512;46.07792990527989
46382;BME280;66809;52.974;-2.514;2023-07-31T01:51:55;996.1394344846229;;;15.940049790995037;46.064777100581
46382;BME280;66809;52.974;-2.514;2023-07-31T01:53:55;996.1153907117082;;;15.94286464016063;46.053607998126935
46382;BME280;66809;52.974;-2.514;2023-07-31T01:55:55;996.0924260461526;;;15.944578757358098;46.03906547879792
46382;BME280;66809;52.974;-2.514;2023-07-31T01:57:55;996.0706665490029;;;15.940430237833185;46.026495125296854
46382;BME280;66809;52.974;-2.514;2023-07-31T01:59:55;996.0503590033123;;;15.930180915913557;46.01303087723261
46382;BME280;66809;52.974;-2.514;2023-07-31T02:01:55;996.034097244792;;;15.932458004450519;45.997201903507964
46382;BME280;66809;52.974;-2.514;2023-07-31T02:03:55;996.0188919710347;;;15.934188928604033;45.98612115695168
46382;BME280;66809;52.974;-2.514;2023-07-31T02:05:55;996.0046491748031;;;15.92553608973477;45.97444755255078
46382;BME280;66809;52.974;-2.514;2023-07-31T02:07:55;995.9910769017744;;;15.92537588831567;45.96734958426295
46382;BME280;66809;52.974;-2.514;2023-07-31T02:09:55;995.9786354484996;;;15.935610194936482;45.94809693572657
46382;BME280;66809;52.974;-2.514;2023-07-31T02:11:55;995.9687600970366;;;15.956311741864907;45.93382685618368
46382;BME280;66809;52.974;-2.514;2023-07-31T02:13:55;995.9602580239738;;;15.963668111685214;45.90860110568384
46382;BME280;66809;52.974;-2.514;2023-07-31T02:15:55;995.9523717885403;;;15.982531850657788;45.88404331731402
46382;BME280;66809;52.974;-2.514;2023-07-31T02:17:56;995.9458124842956;;;16.010504520054518;45.86326343773172
46382;BME280;66809;52.974;-2.514;2023-07-31T02:19:55;995.9393388110726;;;16.035233812330617;45.84364721415638
46382;BME280;66809;52.974;-2.514;2023-07-31T02:21:55;995.9340083922474;;;16.04562119586401;45.82562073231457
46382;BME280;66809;52.974;-2.514;2023-07-31T02:23:56;995.9272437601068;;;16.06015654444257;45.80058888320319
46382;BME280;66809;52.974;-2.514;2023-07-31T02:25:55;995.9222482164786;;;16.080969149365668;45.77318589995785
46382;BME280;66809;52.974;-2.514;2023-07-31T02:27:55;995.9167006191199;;;16.10123008239599;45.74408616118679
46382;BME280;66809;52.974;-2.514;2023-07-31T02:29:55;995.9111677111586;;;16.127429274688737;45.72074049523395
46382;BME280;66809;52.974;-2.514;2023-07-31T02:31:55;995.9047576333724;;;16.151057277503384;45.70471451577376
46382;BME280;66809;52.974;-2.514;2023-07-31T02:33:55;995.8975030506023;;;16.17020617749945;45.696618198225444
46382;BME280;66809;52.974;-2.514;2023-07-31T02:35:55;995.8901733479295;;;16.191077601912873;45.688433940100275
46382;BME280;66809;52.974;-2.514;2023-07-31T02:37:55;995.8838389781096;;;16.216856105643053;45.67453419236617
46382;BME280;66809;52.974;-2.514;2023-07-31T02:39:55;995.8769044583313;;;16.2351778354387;45.65618844106746
46382;BME280;66809;52.974;-2.514;2023-07-31T02:41:55;995.8687410020519;;;16.25118595944961;45.643780086596095
46382;BME280;66809;52.974;-2.514;2023-07-31T02:43:55;995.859902403615;;;16.271418232130358;45.63146805577177
46382;BME280;66809;52.974;-2.514;2023-07-31T02:45:56;995.8502718336894;;;16.29745170420067;45.61905417583994
46382;BME280;66809;52.974;-2.514;2023-07-31T02:47:55;995.8374305183667;;;16.300808459347113;45.61321541985254
46382;BME280;66809;52.974;-2.514;2023-07-31T02:49:55;995.8259618363855;;;16.314013551945777;45.60690628323762
46382;BME280;66809;52.974;-2.514;2023-07-31T02:51:54;995.8184545153522;;;16.326680884090973;45.592171265510935
46382;BME280;66809;52.974;-2.514;2023-07-31T02:53:55;995.8156817973279;;;16.33358117315868;45.57849981390083
46382;BME280;66809;52.974;-2.514;2023-07-31T02:55:55;995.8132007546286;;;16.338750532620754;45.5686820517798
46382;BME280;66809;52.974;-2.514;2023-07-31T02:57:55;995.810757528972;;;16.352757586071263;45.559745829237194
46382;BME280;66809;52.974;-2.514;2023-07-31T02:59:55;995.806863748243;;;16.36646035296011;45.567290269818365
46382;BME280;66809;52.974;-2.514;2023-07-31T03:01:55;995.7995890023177;;;16.36395873307237;45.57611736024368
46382;BME280;66809;52.974;-2.514;2023-07-31T03:03:55;995.791711180895;;;16.36726933724557;45.58227676712632
46382;BME280;66809;52.974;-2.514;2023-07-31T03:05:55;995.7821305743388;;;16.372983623106588;45.588812522732006
46382;BME280;66809;52.974;-2.514;2023-07-31T03:07:55;995.77148080506;;;16.38168687500981;45.594051424400966
46382;BME280;66809;52.974;-2.514;2023-07-31T03:09:55;995.7599336305776;;;16.369959253515336;45.60787846568597
46382;BME280;66809;52.974;-2.514;2023-07-31T03:11:55;995.7455556799089;;;16.349263217599052;45.62641030606906
46382;BME280;66809;52.974;-2.514;2023-07-31T03:13:55;995.7326221952025;;;16.336096959549128;45.651362521592624
46382;BME280;66809;52.974;-2.514;2023-07-31T03:15:55;995.7200702939787;;;16.32691061348282;45.6748619209382
46382;BME280;66809;52.974;-2.514;2023-07-31T03:17:55;995.7051244082908;;;16.315329527101934;45.69825215658766
46382;BME280;66809;52.974;-2.514;2023-07-31T03:19:55;995.6911111150697;;;16.305253044893977;45.72746507184548
46382;BME280;66809;52.974;-2.514;2023-07-31T03:21:55;995.6779250215179;;;16.293170687851376;45.75709738547532
46382;BME280;66809;52.974;-2.514;2023-07-31T03:23:55;995.6659502877314;;;16.298082558902404;45.786743460053245
46382;BME280;66809;52.974;-2.514;2023-07-31T03:25:56;995.6561546676259;;;16.29013425903527;45.80877415270191
46382;BME280;66809;52.974;-2.514;2023-07-31T03:27:55;995.6450421690702;;;16.279242170367553;45.828518115650326
46382;BME280;66809;52.974;-2.514;2023-07-31T03:29:55;995.6343957059564;;;16.267417948465564;45.85079693951673
46382;BME280;66809;52.974;-2.514;2023-07-31T03:31:55;995.6249924821445;;;16.253307690733184;45.871900693158935
46382;BME280;66809;52.974;-2.514;2023-07-31T03:33:55;995.6184725613457;;;16.23960364105265;45.895179483457376
46382;BME280;66809;52.974;-2.514;2023-07-31T03:35:55;995.6127915473262;;;16.235020075435216;45.91251305154959
46382;BME280;66809;52.974;-2.514;2023-07-31T03:37:54;995.6076250159255;;;16.222257109658617;45.92757635603256
46382;BME280;66809;52.974;-2.514;2023-07-31T03:39:55;995.6024986822752;;;16.209155142121382;45.94155583840276
46382;BME280;66809;52.974;-2.514;2023-07-31T03:41:55;995.5984279356012;;;16.20214847550587;45.95136803173428
46382;BME280;66809;52.974;-2.514;2023-07-31T03:43:55;995.5949926671135;;;16.20237406246365;45.954655125103905
46382;BME280;66809;52.974;-2.514;2023-07-31T03:45:55;995.5946221727644;;;16.188375375137372;45.95488094032968
46382;BME280;66809;52.974;-2.514;2023-07-31T03:47:54;995.5980972185786;;;16.19559136959122;45.94673847110855
46382;BME280;66809;52.974;-2.514;2023-07-31T03:49:55;995.6009167410124;;;16.19247952816574;45.93592541003938
46382;BME280;66809;52.974;-2.514;2023-07-31T03:51:55;995.6021886808444;;;16.19246037208877;45.931045331582325
46382;BME280;66809;52.974;-2.514;2023-07-31T03:53:55;995.6008349973085;;;16.18887247667484;45.92310006092202
46382;BME280;66809;52.974;-2.514;2023-07-31T03:55:55;995.5977009404666;;;16.190746791795664;45.91228015128412
46382;BME280;66809;52.974;-2.514;2023-07-31T03:57:54;995.5945033989799;;;16.193315627724928;45.89810022354525
46382;BME280;66809;52.974;-2.514;2023-07-31T03:59:55;995.5910588422811;;;16.189317804005896;45.863861788241785
46382;BME280;66809;52.974;-2.514;2023-07-31T04:01:55;995.5903765533575;;;16.194493776404826;45.82892180612717
46382;BME280;66809;52.974;-2.514;2023-07-31T04:03:55;995.590154846803;;;16.183857937800575;45.789198063264074
46382;BME280;66809;52.974;-2.514;2023-07-31T04:05:55;995.5933296369757;;;16.196375397413885;45.742182072857965
46382;BME280;66809;52.974;-2.514;2023-07-31T04:07:55;995.5971082569001;;;16.199343305330288;45.68387941268717
46382;BME280;66809;52.974;-2.514;2023-07-31T04:09:57;995.6024711533639;;;16.212854086716636;45.613703340625655
46382;BME280;66809;52.974;-2.514;2023-07-31T04:11:55;995.6096991365046;;;16.22426656123608;45.54326051091722
46382;BME280;66809;52.974;-2.514;2023-07-31T04:13:55;995.6159294517778;;;16.245230413762435;45.46003943150382
46382;BME280;66809;52.974;-2.514;2023-07-31T04:15:55;995.6218144881698;;;16.254911454408546;45.37461012308456
46382;BME280;66809;52.974;-2.514;2023-07-31T04:17:55;995.6280213849047;;;16.26809639007801;45.28610469401144
46382;BME280;66809;52.974;-2.514;2023-07-31T04:19:55;995.6345719048139;;;16.29061660255928;45.187112936071564
46382;BME280;66809;52.974;-2.514;2023-07-31T04:21:55;995.6389900565314;;;16.317991184551737;45.08521405524334
46382;BME280;66809;52.974;-2.514;2023-07-31T04:23:55;995.6433665129849;;;16.328351600902906;44.98548633375084
46382;BME280;66809;52.974;-2.514;2023-07-31T04:25:55;995.647196213523;;;16.344843572359775;44.88861496985516
46382;BME280;66809;52.974;-2.514;2023-07-31T04:27:55;995.651545970362;;;16.369340851691017;44.794720597758925
46382;BME280;66809;52.974;-2.514;2023-07-31T04:29:55;995.6539107105423;;;16.410111584189433;44.69472677243566
46382;BME280;66809;52.974;-2.514;2023-07-31T04:31:55;995.6550716543076;;;16.4450501655631;44.58847915985605
46382;BME280;66809;52.974;-2.514;2023-07-31T04:33:55;995.6542768560028;;;16.481120240918436;44.47627933456584
46382;BME280;66809;52.974;-2.514;2023-07-31T04:35:55;995.6531899867529;;;16.506011187343304;44.36564991434888
46382;BME280;66809;52.974;-2.514;2023-07-31T04:37:54;995.6531310869066;;;16.538325292568576;44.25102883288493
46382;BME280;66809;52.974;-2.514;2023-07-31T04:39:55;995.655372910161;;;16.575469035816077;44.14165150281804
46382;BME280;66809;52.974;-2.514;2023-07-31T04:41:55;995.658065007179;;;16.60786716355302;44.03586646323665
46382;BME280;66809;52.974;-2.514;2023-07-31T04:43:55;995.6616953428044;;;16.639122571312793;43.93481470770703
46382;BME280;66809;52.974;-2.514;2023-07-31T04:45:55;995.6638853877196;;;16.67232740944029;43.831766116259516
46382;BME280;66809;52.974;-2.514;2023-07-31T04:47:55;995.6659090580072;;;16.696571436984033;43.72840541107633
46382;BME280;66809;52.974;-2.514;2023-07-31T04:49:55;995.6701226030535;;;16.719855661243727;43.63357108618016
46382;BME280;66809;52.974;-2.514;2023-07-31T04:51:55;995.6746304066295;;;16.742620819096263;43.53507074925641
46382;BME280;66809;52.974;-2.514;2023-07-31T04:53:56;995.6806881900533;;;16.783312911529492;43.433290523875634
46382;BME280;66809;52.974;-2.514;2023-07-31T04:55:55;995.6873758303143;;;16.812548082358223;43.33052172985496
46382;BME280;66809;52.974;-2.514;2023-07-31T04:57:55;995.697067966958;;;16.84963494619466;43.23101539103714
46382;BME280;66809;52.974;-2.514;2023-07-31T04:59:55;995.7082310218502;;;16.889909276976642;43.132395158940106
46382;BME280;66809;52.974;-2.514;2023-07-31T05:01:55;995.7180783377287;;;16.923150105662213;43.035763436187146
46382;BME280;66809;52.974;-2.514;2023-07-31T05:03:55;995.7273102965702;;;16.9586768902057;42.949555120586396
46382;BME280;66809;52.974;-2.514;2023-07-31T05:05:55;995.7329328536041;;;16.991834172664074;42.871066513615226
46382;BME280;66809;52.974;-2.514;2023-07-31T05:07:55;995.7379865499148;;;17.019359364791967;42.80533442976778
46382;BME280;66809;52.974;-2.514;2023-07-31T05:09:55;995.7406312576102;;;17.049915559327214;42.74801682637645
46382;BME280;66809;52.974;-2.514;2023-07-31T05:11:55;995.7444971760261;;;17.090227706985594;42.68395663133306
46382;BME280;66809;52.974;-2.514;2023-07-31T05:13:55;995.7490644141924;;;17.116416951599003;42.63148730434196
46382;BME280;66809;52.974;-2.514;2023-07-31T05:15:55;995.7534698125138;;;17.13901277202599;42.580486952705165
46382;BME280;66809;52.974;-2.514;2023-07-31T05:17:55;995.7589099240071;;;17.167777373841847;42.53026159221439
46382;BME280;66809;52.974;-2.514;2023-07-31T05:19:55;995.7617646466847;;;17.182430353371625;42.49472292351409
46382;BME280;66809;52.974;-2.514;2023-07-31T05:21:55;995.7648537908551;;;17.19945890608817;42.46762014733198
46382;BME280;66809;52.974;-2.514;2023-07-31T05:23:55;995.7676170472679;;;17.218333659031632;42.437029923938425
46382;BME280;66809;52.974;-2.514;2023-07-31T05:25:55;995.767905581745;;;17.23877491139944;42.41458426326223
46382;BME280;66809;52.974;-2.514;2023-07-31T05:27:55;995.767478867386;;;17.2473060012847;42.39263106301724
46382;BME280;66809;52.974;-2.514;2023-07-31T05:29:55;995.7667954082407;;;17.230041670855268;42.37395361588609
46382;BME280;66809;52.974;-2.514;2023-07-31T05:31:55;995.7657347778352;;;17.24955866037026;42.353380960580104
46382;BME280;66809;52.974;-2.514;2023-07-31T05:33:55;995.7645163062366;;;17.254947180679387;42.32504599262946
46382;BME280;66809;52.974;-2.514;2023-07-31T05:35:55;995.7618837183777;;;17.26829062012003;42.30407043254742
46382;BME280;66809;52.974;-2.514;2023-07-31T05:37:55;995.7601448922193;;;17.281174326923672;42.293136633335884
46382;BME280;66809;52.974;-2.514;2023-07-31T05:39:55;995.7556467119834;;;17.29769040325468;42.2797212063302
46382;BME280;66809;52.974;-2.514;2023-07-31T05:41:55;995.7484909441653;;;17.322934478533067;42.263519203119486
46382;BME280;66809;52.974;-2.514;2023-07-31T05:43:55;995.73641616172;;;17.340005163083557;42.245024443142476
46382;BME280;66809;52.974;-2.514;2023-07-31T05:45:55;995.7235930708935;;;17.36078742988;42.22662235108838
46382;BME280;66809;52.974;-2.514;2023-07-31T05:47:55;995.7113644430525;;;17.380600522311756;42.213591102745355
46382;BME280;66809;52.974;-2.514;2023-07-31T05:49:55;995.6997106233147;;;17.413146541644128;42.19798714448685
46382;BME280;66809;52.974;-2.514;2023-07-31T05:51:55;995.6891835932122;;;17.44474907589766;42.17788849229723
46382;BME280;66809;52.974;-2.514;2023-07-31T05:53:55;995.679693928938;;;17.464791478350115;42.149616270288554
46382;BME280;66809;52.974;-2.514;2023-07-31T05:55:54;995.6715746484861;;;17.497326737061847;42.12860603375332
46382;BME280;66809;52.974;-2.514;2023-07-31T05:57:55;995.6616520117134;;;17.528245156823395;42.09762518066445
46382;BME280;66809;52.974;-2.514;2023-07-31T05:59:55;995.6497601311208;;;17.564771291638888;42.070918220986314
46382;BME280;66809;52.974;-2.514;2023-07-31T06:01:55;995.6374186081085;;;17.603910670911596;42.037138471651055
46382;BME280;66809;52.974;-2.514;2023-07-31T06:03:55;995.6260326191231;;;17.657982084958856;42.00395851271375
46382;BME280;66809;52.974;-2.514;2023-07-31T06:05:55;995.6163753843441;;;17.698442686453753;41.973767374573406
46382;BME280;66809;52.974;-2.514;2023-07-31T06:07:55;995.606751633261;;;17.74286096557244;41.93231003083979
46382;BME280;66809;52.974;-2.514;2023-07-31T06:09:55;995.5959536117006;;;17.782340918422246;41.88805484056419
46382;BME280;66809;52.974;-2.514;2023-07-31T06:11:55;995.581975405875;;;17.824972345210533;41.832127681652
46382;BME280;66809;52.974;-2.514;2023-07-31T06:13:55;995.566706207136;;;17.871214507950295;41.77739783433014
46382;BME280;66809;52.974;-2.514;2023-07-31T06:15:55;995.5541341529685;;;17.907330928068347;41.72496301975716
46382;BME280;66809;52.974;-2.514;2023-07-31T06:17:55;995.5441399102909;;;17.93893995612963;41.67141699569859
46382;BME280;66809;52.974;-2.514;2023-07-31T06:19:56;995.5352660513935;;;17.97874517753001;41.61429674932102
46382;BME280;66809;52.974;-2.514;2023-07-31T06:21:55;995.5278137404118;;;18.002539681012077;41.55789131822127
46382;BME280;66809;52.974;-2.514;2023-07-31T06:23:55;995.521331061584;;;18.036286547855617;41.507154008040175
46382;BME280;66809;52.974;-2.514;2023-07-31T06:25:55;995.5178563725918;;;18.06827124794337;41.444868411777044
46382;BME280;66809;52.974;-2.514;2023-07-31T06:27:55;995.5157260713091;;;18.09528396736232;41.3867685216341
46382;BME280;66809;52.974;-2.514;2023-07-31T06:29:55;995.5161309809132;;;18.13511237002787;41.33346713617453
46382;BME280;66809;52.974;-2.514;2023-07-31T06:31:55;995.5195267584874;;;18.15093866596707;41.28364600233622
46382;BME280;66809;52.974;-2.514;2023-07-31T06:33:55;995.5266003622274;;;18.181877006758274;41.242280496779436
46382;BME280;66809;52.974;-2.514;2023-07-31T06:35:55;995.5380705772658;;;18.204305831875978;41.196244272793116
46382;BME280;66809;52.974;-2.514;2023-07-31T06:37:55;995.549443660683;;;18.21436298169785;41.145848264310864
46382;BME280;66809;52.974;-2.514;2023-07-31T06:39:55;995.5619811352445;;;18.208869153797146;41.100244294797186
46382;BME280;66809;52.974;-2.514;2023-07-31T06:41:55;995.57470063731;;;18.207054168821912;41.05684389963521
46382;BME280;66809;52.974;-2.514;2023-07-31T06:43:55;995.5889093360448;;;18.19728977982429;41.02121367937507
46382;BME280;66809;52.974;-2.514;2023-07-31T06:45:55;995.6025337518821;;;18.183828656573937;40.998434182579
46382;BME280;66809;52.974;-2.514;2023-07-31T06:47:55;995.6148075858322;;;18.174678563493824;40.97485757341952
46382;BME280;66809;52.974;-2.514;2023-07-31T06:49:55;995.625088072862;;;18.15159588904258;40.95117953676008
46382;BME280;66809;52.974;-2.514;2023-07-31T06:51:55;995.6324720370719;;;18.134051036755547;40.93785448557582
46382;BME280;66809;52.974;-2.514;2023-07-31T06:53:55;995.6356394228147;;;18.124329544807946;40.936079060896326
46382;BME280;66809;52.974;-2.514;2023-07-31T06:55:55;995.6342525232509;;;18.105238580737957;40.92574522423954
46382;BME280;66809;52.974;-2.514;2023-07-31T06:57:55;995.6277714547015;;;18.083531919525758;40.92150071820162
46382;BME280;66809;52.974;-2.514;2023-07-31T06:59:55;995.6199563850336;;;18.062139021474078;40.92223256147259
46382;BME280;66809;52.974;-2.514;2023-07-31T07:01:55;995.6120909193806;;;18.043687061146567;40.92973557067396
46382;BME280;66809;52.974;-2.514;2023-07-31T07:03:55;995.6046318943747;;;18.02670268840209;40.931359503373386
46382;BME280;66809;52.974;-2.514;2023-07-31T07:05:55;995.5974565868108;;;18.012486101896442;40.91217279576481
46382;BME280;66809;52.974;-2.514;2023-07-31T07:07:55;995.5880044399663;;;17.992874522135562;40.90962690205891
46382;BME280;66809;52.974;-2.514;2023-07-31T07:09:55;995.5774809081253;;;17.974120442027047;40.9092830290482
46382;BME280;66809;52.974;-2.514;2023-07-31T07:11:55;995.5666678740744;;;17.95001339191902;40.912641375140495
46382;BME280;66809;52.974;-2.514;2023-07-31T07:13:55;995.5534773822342;;;17.927065918397183;40.904043185075736